createdAt,value
2022-12-15T00:02:13.554Z,109.42
2022-12-15T00:04:58.868Z,109.49
2022-12-15T00:07:44.420Z,109.55
2022-12-15T00:10:29.692Z,108.68
2022-12-15T00:13:15.101Z,107.85
2022-12-15T00:16:00.255Z,107.43
2022-12-15T00:18:45.819Z,107.35
2022-12-15T00:21:31.033Z,107.26
2022-12-15T00:24:16.442Z,107.27
2022-12-15T00:27:01.681Z,107.35
2022-12-15T00:29:47.045Z,108.23
2022-12-15T00:32:32.536Z,108.62
2022-12-15T00:35:17.707Z,109.10
2022-12-15T00:38:03.131Z,108.43
2022-12-15T00:40:29.945Z,107.78
2022-12-15T00:42:56.642Z,108.08
2022-12-15T00:45:43.272Z,108.33
2022-12-15T00:48:10.010Z,108.52
2022-12-15T00:50:52.171Z,108.65
2022-12-15T00:53:39.073Z,107.40
2022-12-15T00:56:24.622Z,107.03
2022-12-15T00:59:10.901Z,106.70
2022-12-15T01:01:56.824Z,106.29
2022-12-15T01:04:42.635Z,106.62
2022-12-15T01:07:28.305Z,106.30
2022-12-15T01:10:13.721Z,106.93
2022-12-15T01:12:58.987Z,107.44
2022-12-15T01:15:44.209Z,107.24
2022-12-15T01:18:29.509Z,107.47
2022-12-15T01:21:01.360Z,107.30
2022-12-15T01:23:28.490Z,107.36
2022-12-15T01:25:55.810Z,107.28
2022-12-15T01:28:23.600Z,107.36
2022-12-15T01:30:51.226Z,107.02
2022-12-15T01:33:18.747Z,107.17
2022-12-15T01:35:46.451Z,107.43
2022-12-15T01:38:13.085Z,107.88
2022-12-15T01:40:45.625Z,107.93
2022-12-15T01:43:16.707Z,108.22
2022-12-15T01:45:46.954Z,108.04
2022-12-15T01:48:20.425Z,108.17
2022-12-15T01:50:58.346Z,108.30
2022-12-15T01:53:26.861Z,108.43
2022-12-15T01:55:54.295Z,108.60
2022-12-15T01:58:22.006Z,108.87
2022-12-15T02:00:49.035Z,108.86
2022-12-15T02:03:16.242Z,108.86
2022-12-15T02:05:43.089Z,109.09
2022-12-15T02:08:10.802Z,108.66
2022-12-15T02:11:05.453Z,108.20
2022-12-15T02:13:59.223Z,107.90
2022-12-15T02:16:44.332Z,108.17
2022-12-15T02:19:20.793Z,108.04
2022-12-15T02:22:26.020Z,107.24
2022-12-15T02:25:10.267Z,107.25
2022-12-15T02:27:40.093Z,107.11
2022-12-15T02:30:19.005Z,106.50
2022-12-15T02:32:50.210Z,105.76
2022-12-15T02:35:26.036Z,106.40
2022-12-15T02:37:52.838Z,106.95
2022-12-15T02:40:19.616Z,106.90
2022-12-15T02:42:50.104Z,108.11
2022-12-15T02:45:23.110Z,108.39
2022-12-15T02:48:08.360Z,109.20
2022-12-15T02:51:07.357Z,109.28
2022-12-15T02:53:52.749Z,109.30
2022-12-15T02:56:25.816Z,109.07
2022-12-15T02:59:41.863Z,108.36
2022-12-15T03:02:10.847Z,108.35
2022-12-15T03:04:37.796Z,108.26
2022-12-15T03:07:08.315Z,107.79
2022-12-15T03:09:35.095Z,107.81
2022-12-15T03:12:02.038Z,108.10
2022-12-15T03:14:28.791Z,108.04
2022-12-15T03:16:55.813Z,107.65
2022-12-15T03:19:23.107Z,107.25
2022-12-15T03:21:49.833Z,106.40
2022-12-15T03:24:16.526Z,106.19
2022-12-15T03:26:43.802Z,106.98
2022-12-15T03:29:10.507Z,106.97
2022-12-15T03:31:37.274Z,107.11
2022-12-15T03:34:04.021Z,106.70
2022-12-15T03:36:30.745Z,106.53
2022-12-15T03:38:57.391Z,106.14
2022-12-15T03:41:24.032Z,106.00
2022-12-15T03:43:50.740Z,105.95
2022-12-15T03:46:17.546Z,106.30
2022-12-15T03:48:44.326Z,105.79
2022-12-15T03:51:11.097Z,106.21
2022-12-15T03:53:37.860Z,106.40
2022-12-15T03:56:04.770Z,106.90
2022-12-15T03:58:31.592Z,106.94
2022-12-15T04:00:58.368Z,106.21
2022-12-15T04:03:25.283Z,106.64
2022-12-15T04:05:52.005Z,106.53
2022-12-15T04:08:18.842Z,106.55
2022-12-15T04:10:45.556Z,107.01
2022-12-15T04:13:12.598Z,106.86
2022-12-15T04:15:40.406Z,106.20
2022-12-15T04:18:10.109Z,106.00
2022-12-15T04:20:38.285Z,105.50
2022-12-15T04:23:07.975Z,104.92
2022-12-15T04:25:55.053Z,104.80
2022-12-15T04:28:40.769Z,104.82
2022-12-15T04:31:30.557Z,104.38
2022-12-15T04:34:23.465Z,104.48
2022-12-15T04:37:11.222Z,104.86
2022-12-15T04:40:00.923Z,104.54
2022-12-15T04:42:48.272Z,104.40
2022-12-15T04:45:35.627Z,104.24
2022-12-15T04:48:21.049Z,103.90
2022-12-15T04:51:06.412Z,103.61
2022-12-15T04:53:51.658Z,103.21
2022-12-15T04:56:37.177Z,104.02
2022-12-15T04:59:22.808Z,103.60
2022-12-15T05:02:09.016Z,103.51
2022-12-15T05:04:54.339Z,103.51
2022-12-15T05:07:39.860Z,103.11
2022-12-15T05:10:25.966Z,102.95
2022-12-15T05:13:11.326Z,102.91
2022-12-15T05:15:56.659Z,103.34
2022-12-15T05:18:41.827Z,103.36
2022-12-15T05:21:27.433Z,103.22
2022-12-15T05:24:12.830Z,103.33
2022-12-15T05:26:58.469Z,103.06
2022-12-15T05:29:43.789Z,103.09
2022-12-15T05:32:10.331Z,103.42
2022-12-15T05:34:38.065Z,103.07
2022-12-15T05:37:07.268Z,103.47
2022-12-15T05:39:34.628Z,103.45
2022-12-15T05:42:01.342Z,103.45
2022-12-15T05:44:28.869Z,103.25
2022-12-15T05:46:55.650Z,103.45
2022-12-15T05:49:23.320Z,103.45
2022-12-15T05:51:50.359Z,103.65
2022-12-15T05:54:18.969Z,103.92
2022-12-15T05:56:46.727Z,104.02
2022-12-15T05:59:17.832Z,104.11
2022-12-15T06:01:44.963Z,103.70
2022-12-15T06:04:15.066Z,103.79
2022-12-15T06:06:42.407Z,103.83
2022-12-15T06:09:09.830Z,103.20
2022-12-15T06:11:37.449Z,103.48
2022-12-15T06:14:04.848Z,104.07
2022-12-15T06:16:31.986Z,104.23
2022-12-15T06:19:01.359Z,104.03
2022-12-15T06:21:31.693Z,104.45
2022-12-15T06:23:58.933Z,104.49
2022-12-15T06:26:31.682Z,104.50
2022-12-15T06:29:02.614Z,104.18
2022-12-15T06:31:31.819Z,104.28
2022-12-15T06:34:02.099Z,103.98
2022-12-15T06:36:31.032Z,103.65
2022-12-15T06:39:02.571Z,103.11
2022-12-15T06:41:30.721Z,103.22
2022-12-15T06:43:57.979Z,103.07
2022-12-15T06:46:25.940Z,103.11
2022-12-15T06:48:53.183Z,102.96
2022-12-15T06:51:20.462Z,102.94
2022-12-15T06:53:53.921Z,103.09
2022-12-15T06:56:32.201Z,102.86
2022-12-15T06:59:01.645Z,103.14
2022-12-15T07:01:29.225Z,102.71
2022-12-15T07:03:57.014Z,102.80
2022-12-15T07:06:24.019Z,102.56
2022-12-15T07:08:53.076Z,103.12
2022-12-15T07:11:21.681Z,103.47
2022-12-15T07:13:52.907Z,103.70
2022-12-15T07:16:21.588Z,104.22
2022-12-15T07:18:48.812Z,103.14
2022-12-15T07:21:15.495Z,102.75
2022-12-15T07:23:58.507Z,103.36
2022-12-15T07:26:26.332Z,103.28
2022-12-15T07:28:54.397Z,103.40
2022-12-15T07:31:22.964Z,103.31
2022-12-15T07:33:52.092Z,102.74
2022-12-15T07:36:19.079Z,101.50
2022-12-15T07:38:50.381Z,101.81
2022-12-15T07:41:19.410Z,101.50
2022-12-15T07:43:47.623Z,100.63
2022-12-15T07:46:14.776Z,100.12
2022-12-15T07:48:41.565Z,99.96
2022-12-15T07:51:15.157Z,99.90
2022-12-15T07:53:42.408Z,99.96
2022-12-15T07:56:10.431Z,99.95
2022-12-15T07:58:38.620Z,99.92
2022-12-15T08:01:07.980Z,99.97
2022-12-15T08:03:36.714Z,100.03
2022-12-15T08:06:15.053Z,100.19
2022-12-15T08:08:44.108Z,100.06
2022-12-15T08:11:13.465Z,100.00
2022-12-15T08:16:29.432Z,99.85
2022-12-15T08:18:59.611Z,100.35
2022-12-15T08:21:26.371Z,104.88
2022-12-15T08:23:53.425Z,100.60
2022-12-15T08:26:23.829Z,101.27
2022-12-15T08:28:54.017Z,100.61
2022-12-15T08:31:23.269Z,100.89
2022-12-15T08:33:51.083Z,100.45
2022-12-15T08:36:19.626Z,99.58
2022-12-15T08:38:47.606Z,99.07
2022-12-15T08:41:16.023Z,98.92
2022-12-15T08:43:48.053Z,98.89
2022-12-15T08:46:22.267Z,98.72
2022-12-15T08:48:49.793Z,98.87
2022-12-15T08:51:17.558Z,98.97
2022-12-15T08:53:45.127Z,99.10
2022-12-15T08:56:18.187Z,98.34
2022-12-15T08:58:45.449Z,97.38
2022-12-15T09:01:20.749Z,97.10
2022-12-15T09:03:50.525Z,96.07
2022-12-15T09:06:23.669Z,96.01
2022-12-15T09:08:50.802Z,94.75
2022-12-15T09:11:18.091Z,93.72
2022-12-15T09:13:45.081Z,93.46
2022-12-15T09:16:15.321Z,92.98
2022-12-15T09:18:44.677Z,90.91
2022-12-15T09:21:13.033Z,87.91
2022-12-15T09:23:40.090Z,85.46
2022-12-15T09:26:10.796Z,85.19
2022-12-15T09:28:38.393Z,83.04
2022-12-15T09:31:10.951Z,83.46
2022-12-15T09:33:39.250Z,83.68
2022-12-15T09:36:06.721Z,80.49
2022-12-15T09:38:34.977Z,79.08
2022-12-15T09:41:13.901Z,78.39
2022-12-15T09:43:55.909Z,79.01
2022-12-15T09:46:59.954Z,81.69
2022-12-15T09:49:55.610Z,81.33
2022-12-15T09:52:27.323Z,81.98
2022-12-15T09:54:54.192Z,80.36
2022-12-15T09:57:38.262Z,79.79
2022-12-15T10:00:21.832Z,81.36
2022-12-15T10:03:04.962Z,80.19
2022-12-15T10:06:07.313Z,81.94
2022-12-15T10:08:50.732Z,81.65
2022-12-15T10:11:56.979Z,79.54
2022-12-15T10:14:23.699Z,79.93
2022-12-15T10:17:14.175Z,79.81
2022-12-15T10:19:56.307Z,80.69
2022-12-15T10:22:27.156Z,80.50
2022-12-15T10:28:03.238Z,82.81
2022-12-15T10:30:30.269Z,85.04
2022-12-15T10:33:15.886Z,84.81
2022-12-15T10:35:44.160Z,85.77
2022-12-15T10:38:30.126Z,86.01
2022-12-15T10:40:59.686Z,85.92
2022-12-15T10:43:28.501Z,85.29
2022-12-15T10:46:20.675Z,84.42
2022-12-15T10:49:07.274Z,86.92
2022-12-15T10:52:00.576Z,89.00
2022-12-15T10:54:34.929Z,87.18
2022-12-15T10:57:16.711Z,87.51
2022-12-15T10:59:43.861Z,86.99
2022-12-15T11:02:34.164Z,87.61
2022-12-15T11:05:19.689Z,89.23
2022-12-15T11:08:14.080Z,89.37
2022-12-15T11:11:14.705Z,87.35
2022-12-15T11:13:42.267Z,86.53
2022-12-15T11:16:20.002Z,89.10
2022-12-15T11:18:57.641Z,88.92
2022-12-15T11:21:47.603Z,88.62
2022-12-15T11:24:22.497Z,89.28
2022-12-15T11:26:56.104Z,90.79
2022-12-15T11:29:50.157Z,89.95
2022-12-15T11:32:26.850Z,89.54
2022-12-15T11:34:55.962Z,90.09
2022-12-15T11:37:41.954Z,90.63
2022-12-15T11:40:30.930Z,91.05
2022-12-15T11:43:11.020Z,90.45
2022-12-15T11:46:05.425Z,92.09
2022-12-15T11:48:43.089Z,92.02
2022-12-15T11:51:14.245Z,93.84
2022-12-15T11:53:56.158Z,94.14
2022-12-15T11:56:26.840Z,94.17
2022-12-15T11:59:15.210Z,93.49
2022-12-15T12:02:17.284Z,96.14
2022-12-15T12:05:21.073Z,94.14
2022-12-15T12:07:50.558Z,94.98
2022-12-15T12:10:42.740Z,96.06
2022-12-15T12:13:28.312Z,96.80
2022-12-15T12:16:02.012Z,96.87
2022-12-15T12:18:42.441Z,98.52
2022-12-15T12:21:13.331Z,99.00
2022-12-15T12:24:06.833Z,99.53
2022-12-15T12:26:51.601Z,98.94
2022-12-15T12:29:24.272Z,100.28
2022-12-15T12:31:56.478Z,100.99
2022-12-15T12:34:33.121Z,102.05
2022-12-15T12:37:27.669Z,102.78
2022-12-15T12:40:01.109Z,102.52
2022-12-15T12:42:40.182Z,101.85
2022-12-15T12:45:12.394Z,102.01
2022-12-15T12:47:43.073Z,102.44
2022-12-15T12:50:18.879Z,102.45
2022-12-15T12:52:52.629Z,102.83
2022-12-15T12:55:29.875Z,103.77
2022-12-15T12:57:56.880Z,103.94
2022-12-15T13:00:29.800Z,104.61
2022-12-15T13:03:11.023Z,103.90
2022-12-15T13:05:39.670Z,104.47
2022-12-15T13:08:06.369Z,104.52
2022-12-15T13:10:36.389Z,104.53
2022-12-15T13:13:31.946Z,104.21
2022-12-15T13:16:06.805Z,104.76
2022-12-15T13:19:02.198Z,105.21
2022-12-15T13:21:44.310Z,105.36
2022-12-15T13:24:35.312Z,105.55
2022-12-15T13:27:15.420Z,105.09
2022-12-15T13:30:01.793Z,104.69
2022-12-15T13:32:39.153Z,104.88
2022-12-15T13:35:15.031Z,103.44
2022-12-15T13:37:49.031Z,103.39
2022-12-15T13:40:35.215Z,104.47
2022-12-15T13:43:05.177Z,104.39
2022-12-15T13:45:37.990Z,104.82
2022-12-15T13:48:20.062Z,105.52
2022-12-15T13:51:06.538Z,105.60
2022-12-15T13:53:42.773Z,105.69
2022-12-15T13:56:12.438Z,106.28
2022-12-15T13:58:50.813Z,107.26
2022-12-15T14:01:32.959Z,107.49
2022-12-15T14:04:15.418Z,108.35
2022-12-15T14:07:02.759Z,107.91
2022-12-15T14:09:42.009Z,108.49
2022-12-15T14:12:13.456Z,108.98
2022-12-15T14:14:48.964Z,108.97
2022-12-15T14:17:17.996Z,108.49
2022-12-15T14:19:50.764Z,109.32
2022-12-15T14:22:29.773Z,109.30
2022-12-15T14:25:13.019Z,109.27
2022-12-15T14:27:40.137Z,109.49
2022-12-15T14:30:29.669Z,109.45
2022-12-15T14:32:56.553Z,109.88
2022-12-15T14:35:28.926Z,109.94
2022-12-15T14:37:56.990Z,109.68
2022-12-15T14:40:28.864Z,109.75
2022-12-15T14:42:56.656Z,109.84
2022-12-15T14:45:30.978Z,110.15
2022-12-15T14:48:39.985Z,110.78
2022-12-15T14:50:54.199Z,110.78
2022-12-15T14:53:31.590Z,110.80
2022-12-15T14:56:00.693Z,110.94
2022-12-15T14:58:35.210Z,111.03
2022-12-15T15:01:03.843Z,110.94
2022-12-15T15:03:11.192Z,82.14
2022-12-15T15:03:39.267Z,110.77
2022-12-15T15:06:15.891Z,110.69
2022-12-15T15:08:53.103Z,110.82
2022-12-15T15:11:29.661Z,111.00
2022-12-15T15:14:00.202Z,111.00
2022-12-15T15:16:27.567Z,110.79
2022-12-15T15:18:56.960Z,111.08
2022-12-15T15:21:28.279Z,115.12
2022-12-15T15:24:04.168Z,111.40
2022-12-15T15:26:31.565Z,112.01
2022-12-15T15:28:58.736Z,112.33
2022-12-15T15:31:25.584Z,112.19
2022-12-15T15:33:52.944Z,112.17
2022-12-15T15:36:21.834Z,111.82
2022-12-15T15:38:48.686Z,111.71
2022-12-15T15:41:23.377Z,111.68
2022-12-15T15:43:50.086Z,112.12
2022-12-15T15:46:21.349Z,112.34
2022-12-15T15:48:51.378Z,112.22
2022-12-15T15:51:19.089Z,111.89
2022-12-15T15:53:46.673Z,112.24
2022-12-15T15:56:16.295Z,112.26
2022-12-15T15:58:43.869Z,112.12
2022-12-15T16:01:13.368Z,112.10
2022-12-15T16:03:41.133Z,112.13
2022-12-15T16:06:17.721Z,112.23
2022-12-15T16:08:46.507Z,112.35
2022-12-15T16:11:13.342Z,111.97
2022-12-15T16:13:40.539Z,112.06
2022-12-15T16:16:16.369Z,112.03
2022-12-15T16:18:43.275Z,111.99
2022-12-15T16:21:16.998Z,111.97
2022-12-15T16:23:46.860Z,111.77
2022-12-15T16:26:27.540Z,111.79
2022-12-15T16:28:54.651Z,111.95
2022-12-15T16:31:42.067Z,111.71
2022-12-15T16:34:09.515Z,111.86
2022-12-15T16:36:36.540Z,111.92
2022-12-15T16:39:04.608Z,111.78
2022-12-15T16:41:33.437Z,111.77
2022-12-15T16:44:01.836Z,112.13
2022-12-15T16:46:29.176Z,112.18
2022-12-15T16:48:55.903Z,112.37
2022-12-15T16:51:44.767Z,112.32
2022-12-15T16:54:19.284Z,112.78
2022-12-15T16:56:45.970Z,112.80
2022-12-15T16:59:37.109Z,112.90
2022-12-15T17:02:37.499Z,112.87
2022-12-15T17:05:07.077Z,112.88
2022-12-15T17:07:34.074Z,112.84
2022-12-15T17:10:04.379Z,112.69
2022-12-15T17:12:35.146Z,112.64
2022-12-15T17:15:03.943Z,113.00
2022-12-15T17:17:31.538Z,112.94
2022-12-15T17:20:28.100Z,112.96
2022-12-15T17:22:57.253Z,112.49
2022-12-15T17:25:53.665Z,112.70
2022-12-15T17:28:27.165Z,112.51
2022-12-15T17:30:54.010Z,112.45
2022-12-15T17:33:25.778Z,112.29
2022-12-15T17:35:55.070Z,112.09
2022-12-15T17:38:23.282Z,112.10
2022-12-15T17:40:51.884Z,111.73
2022-12-15T17:43:24.029Z,112.13
2022-12-15T17:45:51.291Z,112.55
2022-12-15T17:48:18.441Z,113.13
2022-12-15T17:50:53.419Z,112.89
2022-12-15T17:53:24.147Z,112.91
2022-12-15T17:55:52.794Z,113.22
2022-12-15T17:58:25.685Z,113.29
2022-12-15T18:00:55.628Z,112.99
2022-12-15T18:03:23.924Z,112.82
2022-12-15T18:05:52.582Z,112.45
2022-12-15T18:08:27.162Z,112.12
2022-12-15T18:10:56.759Z,112.04
2022-12-15T18:13:26.838Z,112.04
2022-12-15T18:15:55.728Z,112.02
2022-12-15T18:18:23.769Z,111.87
2022-12-15T18:20:54.032Z,111.78
2022-12-15T18:23:24.967Z,112.38
2022-12-15T18:25:53.996Z,112.21
2022-12-15T18:28:25.497Z,113.38
2022-12-15T18:31:11.669Z,112.68
2022-12-15T18:33:38.794Z,112.53
2022-12-15T18:36:05.992Z,112.24
2022-12-15T18:38:32.786Z,112.16
2022-12-15T18:41:01.035Z,113.53
2022-12-15T18:43:33.647Z,114.09
2022-12-15T18:46:00.885Z,114.29
2022-12-15T18:48:30.383Z,114.02
2022-12-15T18:50:58.868Z,113.87
2022-12-15T18:53:35.236Z,113.88
2022-12-15T18:56:06.347Z,113.93
2022-12-15T18:58:39.557Z,113.97
2022-12-15T19:01:07.601Z,114.16
2022-12-15T19:03:36.440Z,114.08
2022-12-15T19:06:25.928Z,114.22
2022-12-15T19:08:53.182Z,114.50
2022-12-15T19:11:30.868Z,114.54
2022-12-15T19:14:00.831Z,114.88
2022-12-15T19:16:48.281Z,114.70
2022-12-15T19:19:34.149Z,114.84
2022-12-15T19:22:19.438Z,114.77
2022-12-15T19:24:55.451Z,114.51
2022-12-15T19:27:26.297Z,116.36
2022-12-15T19:29:54.577Z,115.53
2022-12-15T19:32:23.085Z,115.07
2022-12-15T19:34:49.984Z,114.83
2022-12-15T19:37:31.075Z,114.48
2022-12-15T19:40:00.685Z,114.38
2022-12-15T19:42:33.495Z,114.20
2022-12-15T19:45:04.116Z,114.11
2022-12-15T19:47:30.762Z,114.10
2022-12-15T19:49:57.489Z,114.03
2022-12-15T19:52:27.015Z,113.86
2022-12-15T19:54:53.755Z,113.88
2022-12-15T19:57:21.139Z,113.72
2022-12-15T19:59:47.827Z,113.67
2022-12-15T20:02:20.343Z,113.93
2022-12-15T20:04:48.008Z,113.72
2022-12-15T20:07:21.260Z,113.53
2022-12-15T20:09:48.079Z,113.48
2022-12-15T20:12:19.678Z,113.75
2022-12-15T20:14:47.209Z,113.74
2022-12-15T20:17:14.034Z,113.83
2022-12-15T20:19:41.212Z,113.83
2022-12-15T20:22:14.793Z,113.97
2022-12-15T20:24:42.922Z,114.17
2022-12-15T20:27:19.614Z,113.78
2022-12-15T20:29:46.639Z,113.48
2022-12-15T20:32:19.468Z,113.34
2022-12-15T20:34:46.821Z,113.18
2022-12-15T20:37:20.610Z,113.11
2022-12-15T20:39:49.452Z,113.07
2022-12-15T20:42:21.877Z,113.45
2022-12-15T20:44:49.166Z,113.51
2022-12-15T20:47:25.741Z,113.47
2022-12-15T20:49:54.791Z,113.39
2022-12-15T20:52:25.227Z,113.71
2022-12-15T20:54:53.182Z,113.79
2022-12-15T20:57:20.320Z,113.57
2022-12-15T20:59:47.404Z,113.44
2022-12-15T21:02:17.335Z,113.37
2022-12-15T21:04:44.244Z,113.50
2022-12-15T21:07:12.043Z,113.20
2022-12-15T21:09:39.280Z,113.17
2022-12-15T21:12:27.555Z,113.00
2022-12-15T21:14:55.146Z,112.74
2022-12-15T21:17:25.602Z,112.97
2022-12-15T21:19:52.762Z,112.97
2022-12-15T21:22:27.404Z,112.77
2022-12-15T21:24:56.785Z,112.76
2022-12-15T21:27:23.614Z,112.68
2022-12-15T21:29:52.879Z,112.81
2022-12-15T21:32:20.637Z,113.95
2022-12-15T21:34:47.380Z,113.62
2022-12-15T21:37:24.295Z,113.18
2022-12-15T21:39:51.688Z,113.00
2022-12-15T21:42:21.138Z,112.93
2022-12-15T21:44:48.000Z,113.02
2022-12-15T21:47:52.087Z,112.69
2022-12-15T21:50:19.762Z,112.43
2022-12-15T21:52:47.568Z,112.33
2022-12-15T21:55:22.995Z,112.32
2022-12-15T21:57:49.913Z,112.45
2022-12-15T22:00:19.489Z,112.63
2022-12-15T22:02:48.078Z,112.72
2022-12-15T22:05:18.767Z,112.96
2022-12-15T22:07:46.163Z,113.10
2022-12-15T22:10:13.591Z,113.10
2022-12-15T22:12:42.285Z,112.63
2022-12-15T22:15:17.868Z,114.00
2022-12-15T22:17:44.845Z,113.48
2022-12-15T22:20:21.128Z,113.19
2022-12-15T22:22:48.493Z,112.90
2022-12-15T22:25:25.909Z,112.68
2022-12-15T22:27:52.774Z,112.96
2022-12-15T22:30:26.708Z,112.94
2022-12-15T22:32:53.910Z,112.52
2022-12-15T22:35:23.737Z,111.92
2022-12-15T22:37:53.498Z,112.50
2022-12-15T22:40:22.319Z,112.68
2022-12-15T22:42:55.900Z,112.23
2022-12-15T22:45:26.169Z,112.71
2022-12-15T22:47:55.027Z,113.01
2022-12-15T22:50:26.488Z,113.18
2022-12-15T22:52:53.243Z,113.99
2022-12-15T22:55:22.953Z,114.29
2022-12-15T22:58:01.271Z,114.21
2022-12-15T23:00:28.430Z,114.59
2022-12-15T23:05:28.413Z,112.89
2022-12-15T23:07:55.091Z,113.05
2022-12-15T23:10:40.225Z,113.30
2022-12-15T23:13:07.037Z,112.90
2022-12-15T23:15:52.907Z,112.72
2022-12-15T23:18:21.765Z,112.77
2022-12-15T23:20:48.519Z,112.97
2022-12-15T23:23:15.448Z,112.57
2022-12-15T23:25:42.237Z,112.75
2022-12-15T23:28:09.158Z,112.77
2022-12-15T23:30:36.050Z,112.58
2022-12-15T23:33:02.886Z,112.80
2022-12-15T23:35:29.701Z,113.23
2022-12-15T23:37:57.941Z,113.80
2022-12-15T23:40:24.710Z,114.18
2022-12-15T23:42:52.181Z,114.15
2022-12-15T23:45:19.661Z,113.70
2022-12-15T23:47:46.411Z,113.80
2022-12-15T23:50:13.163Z,113.87
2022-12-15T23:52:39.908Z,113.89
2022-12-15T23:55:10.277Z,113.90
2022-12-15T23:57:38.430Z,113.67
